Time;durP1;ratioP1;P1;durP2;ratioP2;P2;SDS_P1;SDS_P2;PMS_P1;PMS_P2;Temp;Humidity;BMP_temperature;BMP_pressure;BME280_temperature;BME280_humidity;BME280_pressure;Samples;Min_cycle;Max_cycle;Signal;HPM_P1;HPM_P2
2022/04/01 00:00:28;;;;;;;15.23;9.70;;;;;;;;;;4940138;28;21547;-51
2022/04/01 00:02:54;;;;;;;19.70;11.67;;;;;;;;;;4942757;28;20461;-51
2022/04/01 00:05:20;;;;;;;16.37;9.73;;;;;;;;;;4943161;28;20890;-52
2022/04/01 00:07:46;;;;;;;17.57;10.50;;;;;;;;;;4939190;28;20499;-51
2022/04/01 00:10:12;;;;;;;23.27;11.80;;;;;;;;;;4940861;28;20443;-51
2022/04/01 00:12:42;;;;;;;18.10;10.40;;;;;;;;;;4947957;28;20517;-50
2022/04/01 00:15:08;;;;;;;15.60;9.93;;;;;;;;;;4941756;28;20497;-51
2022/04/01 00:17:34;;;;;;;17.07;10.63;;;;;;;;;;4952512;28;20573;-50
2022/04/01 00:20:02;;;;;;;23.97;11.90;;;;;;;;;;4941639;28;20446;-49
2022/04/01 00:22:29;;;;;;;18.03;9.53;;;;;;;;;;4943214;28;20466;-50
2022/04/01 00:24:55;;;;;;;17.23;9.17;;;;;;;;;;4939342;28;20480;-49
2022/04/01 00:27:21;;;;;;;14.40;9.17;;;;;;;;;;4936496;28;20443;-49
2022/04/01 00:29:48;;;;;;;14.93;10.80;;;;;;;;;;4940418;28;20442;-50
2022/04/01 00:32:14;;;;;;;16.80;12.27;;;;;;;;;;4937402;28;20542;-49
2022/04/01 00:34:41;;;;;;;18.97;9.60;;;;;;;;;;4940089;28;20486;-50
2022/04/01 00:37:07;;;;;;;14.93;9.70;;;;;;;;;;4918646;29;20451;-50
2022/04/01 00:39:33;;;;;;;18.50;9.93;;;;;;;;;;4944370;28;20428;-51
2022/04/01 00:42:00;;;;;;;19.57;11.40;;;;;;;;;;4943142;28;20512;-49
2022/04/01 00:44:27;;;;;;;16.23;9.17;;;;;;;;;;4941087;28;20529;-50
2022/04/01 00:47:03;;;;;;;17.47;10.63;;;;;;;;;;4948502;28;20870;-49
2022/04/01 00:49:32;;;;;;;16.17;8.50;;;;;;;;;;4949147;28;20443;-50
2022/04/01 00:52:02;;;;;;;15.00;9.47;;;;;;;;;;4942455;28;20431;-50
2022/04/01 00:54:31;;;;;;;16.27;10.87;;;;;;;;;;4944976;28;20467;-50
2022/04/01 00:56:57;;;;;;;18.70;10.00;;;;;;;;;;4934030;28;20573;-49
2022/04/01 00:59:24;;;;;;;20.57;8.77;;;;;;;;;;4940752;28;21239;-49
2022/04/01 01:01:50;;;;;;;16.20;9.13;;;;;;;;;;4952378;28;20509;-49
2022/04/01 01:04:19;;;;;;;15.80;10.23;;;;;;;;;;4942245;28;20488;-50
2022/04/01 01:06:48;;;;;;;18.30;9.57;;;;;;;;;;4936097;28;20518;-51
2022/04/01 01:09:17;;;;;;;17.27;10.53;;;;;;;;;;4942936;28;20423;-50
2022/04/01 01:11:45;;;;;;;16.93;8.07;;;;;;;;;;4944456;28;20439;-50
2022/04/01 01:14:13;;;;;;;18.83;9.67;;;;;;;;;;4945025;28;20440;-52
2022/04/01 01:16:40;;;;;;;13.80;8.83;;;;;;;;;;4935024;29;21432;-50
2022/04/01 01:19:07;;;;;;;15.47;9.10;;;;;;;;;;4940655;28;20478;-51
2022/04/01 01:21:33;;;;;;;12.07;8.47;;;;;;;;;;4945429;28;20431;-49
2022/04/01 01:24:06;;;;;;;15.60;9.57;;;;;;;;;;4945569;28;20483;-49
2022/04/01 01:26:32;;;;;;;15.63;9.80;;;;;;;;;;4940978;28;20453;-50
2022/04/01 01:28:58;;;;;;;12.03;7.27;;;;;;;;;;4944059;28;20475;-49
2022/04/01 01:31:26;;;;;;;16.03;9.60;;;;;;;;;;4943099;28;20522;-54
2022/04/01 01:33:52;;;;;;;13.77;9.57;;;;;;;;;;4978106;28;20455;-49
2022/04/01 01:36:24;;;;;;;14.53;9.90;;;;;;;;;;4943550;28;20510;-50
2022/04/01 01:38:51;;;;;;;11.90;8.50;;;;;;;;;;4941181;28;20539;-48
2022/04/01 01:41:18;;;;;;;12.77;8.40;;;;;;;;;;4978747;28;20462;-50
2022/04/01 01:43:50;;;;;;;16.83;9.50;;;;;;;;;;4945415;28;20474;-50
2022/04/01 01:46:18;;;;;;;14.63;9.80;;;;;;;;;;4927913;29;20440;-50
2022/04/01 01:48:45;;;;;;;15.73;8.40;;;;;;;;;;4944057;28;20461;-50
2022/04/01 01:56:48;;;;;;;16.80;9.40;;;;;;;;;;4941721;28;20507;-50
2022/04/01 01:59:15;;;;;;;13.80;8.63;;;;;;;;;;4943909;28;20601;-51
2022/04/01 02:01:41;;;;;;;12.63;9.20;;;;;;;;;;4942057;28;20435;-49
2022/04/01 02:04:09;;;;;;;13.23;8.50;;;;;;;;;;4949716;28;20489;-50
2022/04/01 02:06:36;;;;;;;12.20;8.00;;;;;;;;;;4938841;28;20438;-50
2022/04/01 02:09:02;;;;;;;15.87;8.90;;;;;;;;;;4943061;28;20447;-50
2022/04/01 02:11:29;;;;;;;16.67;9.30;;;;;;;;;;4943340;28;20636;-49
2022/04/01 02:13:55;;;;;;;15.03;9.07;;;;;;;;;;4946174;28;20473;-51
2022/04/01 02:16:24;;;;;;;16.87;10.90;;;;;;;;;;4942155;28;20884;-52
2022/04/01 02:18:52;;;;;;;14.50;7.77;;;;;;;;;;4947274;28;20526;-51
2022/04/01 02:21:18;;;;;;;14.13;9.17;;;;;;;;;;4930407;28;20436;-50
2022/04/01 02:23:48;;;;;;;15.77;9.37;;;;;;;;;;4949021;28;20506;-49
2022/04/01 02:26:15;;;;;;;11.93;7.77;;;;;;;;;;4975409;28;20455;-48
2022/04/01 02:28:41;;;;;;;14.57;9.00;;;;;;;;;;4923406;29;20801;-50
2022/04/01 02:31:15;;;;;;;15.53;8.40;;;;;;;;;;4943274;28;20438;-50
2022/04/01 02:33:43;;;;;;;14.57;9.63;;;;;;;;;;4940403;28;20443;-50
2022/04/01 02:36:13;;;;;;;18.00;9.70;;;;;;;;;;4974803;28;20517;-54
2022/04/01 02:38:40;;;;;;;15.80;10.27;;;;;;;;;;4941948;28;20725;-50
2022/04/01 02:41:08;;;;;;;19.37;9.77;;;;;;;;;;4947006;28;20452;-50
2022/04/01 02:43:36;;;;;;;18.47;9.93;;;;;;;;;;4945084;28;20505;-49
2022/04/01 02:46:03;;;;;;;28.60;9.27;;;;;;;;;;4941388;28;20451;-50
2022/04/01 02:48:30;;;;;;;15.27;10.10;;;;;;;;;;4944697;28;20455;-50
2022/04/01 02:50:56;;;;;;;15.63;11.07;;;;;;;;;;4939792;28;20458;-49
2022/04/01 02:53:22;;;;;;;17.07;10.30;;;;;;;;;;4941639;28;20431;-49
2022/04/01 02:55:48;;;;;;;16.10;10.10;;;;;;;;;;4943805;28;21023;-51
2022/04/01 02:58:14;;;;;;;17.93;10.90;;;;;;;;;;4941727;28;20559;-50
2022/04/01 03:00:40;;;;;;;21.10;11.80;;;;;;;;;;4956032;28;20636;-49
2022/04/01 03:03:07;;;;;;;15.30;10.80;;;;;;;;;;4941598;28;20473;-49
2022/04/01 03:05:33;;;;;;;19.60;13.97;;;;;;;;;;4943934;28;20486;-50
2022/04/01 03:08:00;;;;;;;22.63;12.87;;;;;;;;;;4945581;28;20554;-51
2022/04/01 03:10:27;;;;;;;20.50;13.83;;;;;;;;;;4940711;28;20431;-50
2022/04/01 03:12:53;;;;;;;23.57;12.53;;;;;;;;;;4955806;28;20483;-50
2022/04/01 03:15:19;;;;;;;24.10;14.13;;;;;;;;;;4942482;28;20466;-50
2022/04/01 03:17:45;;;;;;;23.20;14.67;;;;;;;;;;4934697;28;20435;-50
2022/04/01 03:20:14;;;;;;;22.17;13.27;;;;;;;;;;4943543;28;20838;-49
2022/04/01 03:22:43;;;;;;;24.83;14.80;;;;;;;;;;4953389;28;20839;-50
2022/04/01 03:25:14;;;;;;;13.57;8.67;;;;;;;;;;4926690;28;20565;-50
2022/04/01 03:27:42;;;;;;;21.37;12.80;;;;;;;;;;4970430;28;20440;-50
2022/04/01 03:30:10;;;;;;;24.13;12.97;;;;;;;;;;4942924;28;20959;-51
2022/04/01 03:32:42;;;;;;;24.70;13.83;;;;;;;;;;4940971;28;20489;-51
2022/04/01 03:35:09;;;;;;;23.10;13.07;;;;;;;;;;4958087;28;20455;-50
2022/04/01 03:37:38;;;;;;;25.93;12.80;;;;;;;;;;4942145;28;20439;-51
2022/04/01 03:40:04;;;;;;;27.17;13.57;;;;;;;;;;4958607;28;20488;-49
2022/04/01 03:42:31;;;;;;;28.70;13.03;;;;;;;;;;4942189;28;20910;-49
2022/04/01 03:45:04;;;;;;;21.97;13.30;;;;;;;;;;4941676;28;20482;-50
2022/04/01 03:47:31;;;;;;;19.20;11.57;;;;;;;;;;4940566;29;20573;-50
2022/04/01 03:49:59;;;;;;;20.57;10.50;;;;;;;;;;4942440;28;20498;-50
2022/04/01 03:52:25;;;;;;;13.37;9.50;;;;;;;;;;4941526;28;20960;-48
2022/04/01 03:55:11;;;;;;;25.40;12.37;;;;;;;;;;4938454;28;20423;-48
2022/04/01 03:57:38;;;;;;;17.10;9.80;;;;;;;;;;4942488;28;20439;-48
2022/04/01 04:00:05;;;;;;;15.63;10.63;;;;;;;;;;4936032;28;20431;-49
2022/04/01 04:02:34;;;;;;;19.37;11.23;;;;;;;;;;4938416;28;20443;-50
2022/04/01 04:05:01;;;;;;;23.77;14.30;;;;;;;;;;4942008;28;20493;-50
2022/04/01 04:07:27;;;;;;;24.67;14.53;;;;;;;;;;4943194;28;20546;-50
2022/04/01 04:09:53;;;;;;;25.17;13.00;;;;;;;;;;4942982;28;20470;-50
2022/04/01 04:12:20;;;;;;;24.97;14.80;;;;;;;;;;4944265;28;20452;-50
2022/04/01 04:14:47;;;;;;;22.50;13.03;;;;;;;;;;4943676;28;20435;-48
2022/04/01 04:17:16;;;;;;;23.20;10.33;;;;;;;;;;4941757;28;20446;-49
2022/04/01 04:19:46;;;;;;;20.73;12.30;;;;;;;;;;4943483;28;20505;-49
2022/04/01 04:22:13;;;;;;;15.90;8.57;;;;;;;;;;4942488;28;20439;-50
2022/04/01 04:24:43;;;;;;;12.73;9.00;;;;;;;;;;4939439;28;20835;-51
2022/04/01 04:27:13;;;;;;;19.97;10.93;;;;;;;;;;4934389;28;20462;-50
2022/04/01 04:29:43;;;;;;;21.10;9.57;;;;;;;;;;4939674;28;20576;-51
2022/04/01 04:32:09;;;;;;;21.63;12.20;;;;;;;;;;4932388;28;20534;-51
2022/04/01 04:34:36;;;;;;;17.37;10.90;;;;;;;;;;4930417;28;20808;-49
2022/04/01 04:37:02;;;;;;;23.87;12.30;;;;;;;;;;4934898;28;20823;-50
2022/04/01 04:39:32;;;;;;;24.67;13.00;;;;;;;;;;4931809;28;20444;-51
2022/04/01 04:42:01;;;;;;;13.33;8.90;;;;;;;;;;4935367;28;21260;-50
2022/04/01 04:44:29;;;;;;;16.43;9.30;;;;;;;;;;4937937;28;20502;-52
2022/04/01 04:46:58;;;;;;;21.40;10.00;;;;;;;;;;4935898;28;20438;-49
2022/04/01 04:49:32;;;;;;;19.27;11.07;;;;;;;;;;4929531;28;20469;-49
2022/04/01 04:51:59;;;;;;;22.13;11.13;;;;;;;;;;4949956;28;20475;-50
2022/04/01 04:54:26;;;;;;;22.40;12.17;;;;;;;;;;4941778;28;20534;-50
2022/04/01 04:56:55;;;;;;;16.23;11.10;;;;;;;;;;4944700;28;20443;-50
2022/04/01 04:59:22;;;;;;;16.33;11.17;;;;;;;;;;4945487;28;20444;-51
2022/04/01 05:01:54;;;;;;;18.47;10.60;;;;;;;;;;4932035;28;21132;-50
2022/04/01 05:04:39;;;;;;;19.40;10.60;;;;;;;;;;4934392;28;20490;-50
2022/04/01 05:07:12;;;;;;;17.87;11.00;;;;;;;;;;4940963;28;20450;-50
2022/04/01 05:09:40;;;;;;;15.80;9.83;;;;;;;;;;4943030;28;20470;-51
2022/04/01 05:12:07;;;;;;;17.67;11.03;;;;;;;;;;4938384;28;20453;-50
2022/04/01 05:14:33;;;;;;;17.53;10.80;;;;;;;;;;4928232;28;20453;-50
2022/04/01 05:17:15;;;;;;;23.87;13.07;;;;;;;;;;4923578;28;20513;-51
2022/04/01 05:19:45;;;;;;;16.47;10.67;;;;;;;;;;4933842;28;20522;-51
2022/04/01 05:22:11;;;;;;;18.33;11.60;;;;;;;;;;4949799;28;20880;-51
2022/04/01 05:24:38;;;;;;;23.40;12.00;;;;;;;;;;4950055;28;20487;-51
2022/04/01 05:27:06;;;;;;;18.07;10.20;;;;;;;;;;4953797;28;20956;-50
2022/04/01 05:29:35;;;;;;;16.30;8.50;;;;;;;;;;4955019;28;20449;-50
2022/04/01 05:32:03;;;;;;;17.43;10.77;;;;;;;;;;4953367;28;20450;-51
2022/04/01 05:34:35;;;;;;;15.97;8.80;;;;;;;;;;4948818;28;20492;-52
2022/04/01 05:37:02;;;;;;;14.50;8.80;;;;;;;;;;4947691;28;20450;-51
2022/04/01 05:39:30;;;;;;;26.50;11.70;;;;;;;;;;4950162;28;20454;-53
2022/04/01 05:41:57;;;;;;;15.20;9.53;;;;;;;;;;4937984;29;20514;-52
2022/04/01 05:44:23;;;;;;;15.50;9.23;;;;;;;;;;4936108;29;20478;-52
2022/04/01 05:46:51;;;;;;;13.60;8.20;;;;;;;;;;4925806;29;20438;-52
2022/04/01 05:49:17;;;;;;;16.50;11.20;;;;;;;;;;4949017;28;20834;-51
2022/04/01 05:51:43;;;;;;;15.23;9.43;;;;;;;;;;4953707;28;20435;-52
2022/04/01 05:54:09;;;;;;;17.70;10.43;;;;;;;;;;4950514;28;20465;-52
2022/04/01 05:56:37;;;;;;;18.17;10.20;;;;;;;;;;4950818;28;20455;-52
2022/04/01 05:59:04;;;;;;;17.33;10.77;;;;;;;;;;4946257;28;20459;-53
2022/04/01 06:01:33;;;;;;;21.13;11.00;;;;;;;;;;4947910;28;20802;-52
2022/04/01 06:04:06;;;;;;;22.07;11.57;;;;;;;;;;4952822;28;20549;-51
2022/04/01 06:06:40;;;;;;;16.33;10.23;;;;;;;;;;4944900;28;20451;-51
2022/04/01 06:09:14;;;;;;;19.47;12.60;;;;;;;;;;4944000;28;20451;-51
2022/04/01 06:11:59;;;;;;;19.77;12.80;;;;;;;;;;4951922;28;20456;-52
2022/04/01 06:14:45;;;;;;;15.90;10.70;;;;;;;;;;4928183;28;20481;-51
2022/04/01 06:17:25;;;;;;;19.57;11.60;;;;;;;;;;4938430;28;20444;-51
2022/04/01 06:19:52;;;;;;;16.07;11.53;;;;;;;;;;4939304;28;20422;-53
2022/04/01 06:22:18;;;;;;;15.53;9.77;;;;;;;;;;4950086;28;20478;-51
2022/04/01 06:24:46;;;;;;;21.83;13.37;;;;;;;;;;4945995;28;20479;-52
2022/04/01 06:27:12;;;;;;;20.87;11.60;;;;;;;;;;4944829;28;22646;-50
2022/04/01 06:29:39;;;;;;;16.43;9.70;;;;;;;;;;4944611;28;20964;-51
2022/04/01 06:32:05;;;;;;;19.33;10.70;;;;;;;;;;4949602;28;20446;-50
2022/04/01 06:34:37;;;;;;;20.50;11.50;;;;;;;;;;4943262;28;20432;-52
2022/04/01 06:37:04;;;;;;;23.50;12.47;;;;;;;;;;4949935;28;20518;-51
2022/04/01 06:39:50;;;;;;;15.80;10.20;;;;;;;;;;4947403;28;20455;-52
2022/04/01 06:42:19;;;;;;;18.47;12.73;;;;;;;;;;4949435;28;20443;-52
2022/04/01 06:44:47;;;;;;;23.77;12.17;;;;;;;;;;4950334;28;20490;-51
2022/04/01 06:47:13;;;;;;;20.63;12.63;;;;;;;;;;4944861;28;20450;-52
2022/04/01 06:49:39;;;;;;;16.53;9.80;;;;;;;;;;4950903;28;20511;-51
2022/04/01 06:52:05;;;;;;;18.63;10.57;;;;;;;;;;4948016;28;20458;-52
2022/04/01 06:54:43;;;;;;;14.83;9.77;;;;;;;;;;4943191;28;20466;-51
2022/04/01 06:57:14;;;;;;;18.27;13.13;;;;;;;;;;4962305;28;20479;-51
2022/04/01 06:59:40;;;;;;;20.03;12.83;;;;;;;;;;4940737;28;20443;-50
2022/04/01 07:02:08;;;;;;;24.00;13.57;;;;;;;;;;4931128;28;20636;-52
2022/04/01 07:04:34;;;;;;;16.93;11.47;;;;;;;;;;4933791;28;20712;-51
2022/04/01 07:07:01;;;;;;;19.03;11.87;;;;;;;;;;4934713;28;20475;-50
2022/04/01 07:09:28;;;;;;;23.40;12.60;;;;;;;;;;4933175;28;20798;-51
2022/04/01 07:11:55;;;;;;;21.60;13.50;;;;;;;;;;4943722;28;20948;-56
2022/04/01 07:14:21;;;;;;;24.37;13.50;;;;;;;;;;4939859;28;20478;-51
2022/04/01 07:16:47;;;;;;;22.93;14.40;;;;;;;;;;4943039;28;20993;-52
2022/04/01 07:19:13;;;;;;;22.53;11.70;;;;;;;;;;4941148;28;20451;-52
2022/04/01 07:21:39;;;;;;;20.30;12.97;;;;;;;;;;4923822;28;20431;-51
2022/04/01 07:24:06;;;;;;;19.50;12.80;;;;;;;;;;4934847;28;20482;-51
2022/04/01 07:26:33;;;;;;;25.03;13.07;;;;;;;;;;4970600;28;20474;-51
2022/04/01 07:29:01;;;;;;;21.63;12.93;;;;;;;;;;4938369;28;20447;-51
2022/04/01 07:34:16;;;;;;;22.70;12.43;;;;;;;;;;4936189;28;20453;-51
2022/04/01 07:36:42;;;;;;;16.47;11.90;;;;;;;;;;4942887;28;20537;-52
2022/04/01 07:39:10;;;;;;;21.80;12.10;;;;;;;;;;4939326;28;20441;-51
2022/04/01 07:41:37;;;;;;;19.63;12.57;;;;;;;;;;4927675;29;20761;-52
2022/04/01 07:44:03;;;;;;;19.87;12.67;;;;;;;;;;4941733;28;20537;-51
2022/04/01 07:46:31;;;;;;;19.30;12.50;;;;;;;;;;4940224;28;20478;-50
2022/04/01 07:48:57;;;;;;;15.13;10.97;;;;;;;;;;4925265;28;20850;-52
2022/04/01 07:51:25;;;;;;;18.67;12.27;;;;;;;;;;4938379;28;20460;-51
2022/04/01 07:53:50;;;;;;;16.70;13.00;;;;;;;;;;4935888;28;20439;-50
2022/04/01 07:56:17;;;;;;;20.87;12.17;;;;;;;;;;4938944;28;20546;-50
2022/04/01 07:58:45;;;;;;;22.37;15.00;;;;;;;;;;4942357;28;20447;-51
2022/04/01 08:01:12;;;;;;;20.80;13.17;;;;;;;;;;4930699;28;20443;-51
2022/04/01 08:03:44;;;;;;;19.57;12.07;;;;;;;;;;4941228;29;20461;-52
2022/04/01 08:06:10;;;;;;;22.20;14.50;;;;;;;;;;4935571;28;20443;-50
2022/04/01 08:08:38;;;;;;;21.70;10.93;;;;;;;;;;4936137;28;20850;-51
2022/04/01 08:11:20;;;;;;;20.17;12.07;;;;;;;;;;4938915;28;20493;-51
2022/04/01 08:13:50;;;;;;;26.90;15.93;;;;;;;;;;4937022;28;20514;-51
2022/04/01 08:16:19;;;;;;;24.57;14.27;;;;;;;;;;4937589;28;20501;-51
2022/04/01 08:19:03;;;;;;;25.47;14.90;;;;;;;;;;4939759;28;20483;-51
2022/04/01 08:21:32;;;;;;;28.80;16.03;;;;;;;;;;4937482;28;20478;-51
2022/04/01 08:23:58;;;;;;;22.53;15.23;;;;;;;;;;4956220;28;20454;-53
2022/04/01 08:26:25;;;;;;;21.50;11.90;;;;;;;;;;4938041;28;20526;-51
2022/04/01 08:28:51;;;;;;;26.33;13.17;;;;;;;;;;4939138;28;20431;-52
2022/04/01 08:31:27;;;;;;;20.70;12.30;;;;;;;;;;4937213;28;21163;-50
2022/04/01 08:34:11;;;;;;;20.50;14.37;;;;;;;;;;4938397;28;20956;-51
2022/04/01 08:36:38;;;;;;;20.20;14.10;;;;;;;;;;4939886;28;20446;-50
2022/04/01 08:39:12;;;;;;;23.87;14.70;;;;;;;;;;4934491;28;20439;-52
2022/04/01 08:41:46;;;;;;;22.60;13.30;;;;;;;;;;4936588;28;20515;-52
2022/04/01 08:44:18;;;;;;;18.97;11.20;;;;;;;;;;4940145;28;20538;-52
2022/04/01 08:46:44;;;;;;;22.10;15.07;;;;;;;;;;4940175;28;20442;-50
2022/04/01 08:49:24;;;;;;;22.37;13.97;;;;;;;;;;4954014;28;20538;-52
2022/04/01 08:51:56;;;;;;;18.97;11.57;;;;;;;;;;4927167;28;20654;-52
2022/04/01 08:54:23;;;;;;;20.87;11.90;;;;;;;;;;4935829;28;21232;-51
2022/04/01 08:57:08;;;;;;;20.63;11.60;;;;;;;;;;4934416;28;20542;-51
2022/04/01 08:59:41;;;;;;;14.13;10.17;;;;;;;;;;4933669;28;20494;-53
2022/04/01 09:02:12;;;;;;;17.07;10.53;;;;;;;;;;4935754;28;20446;-52
2022/04/01 09:04:53;;;;;;;16.17;9.30;;;;;;;;;;4941241;28;21027;-51
2022/04/01 09:07:19;;;;;;;17.73;11.07;;;;;;;;;;4936766;28;20554;-51
2022/04/01 09:09:45;;;;;;;15.50;10.47;;;;;;;;;;4935780;28;20489;-49
2022/04/01 09:12:12;;;;;;;16.40;9.30;;;;;;;;;;4934813;28;20439;-51
2022/04/01 09:14:42;;;;;;;18.23;11.07;;;;;;;;;;4934426;28;21193;-51
2022/04/01 09:17:15;;;;;;;17.00;11.20;;;;;;;;;;4935617;28;20536;-52
2022/04/01 09:19:42;;;;;;;21.67;11.00;;;;;;;;;;4936875;28;20573;-51
2022/04/01 09:22:23;;;;;;;17.47;10.83;;;;;;;;;;4937268;28;20533;-51
2022/04/01 09:24:59;;;;;;;14.63;9.07;;;;;;;;;;4939091;28;20487;-51
2022/04/01 09:27:42;;;;;;;16.13;10.33;;;;;;;;;;4968304;28;20474;-51
2022/04/01 09:30:11;;;;;;;15.57;9.87;;;;;;;;;;4970589;28;20477;-52
2022/04/01 09:32:41;;;;;;;18.23;10.90;;;;;;;;;;4937415;28;20439;-52
2022/04/01 09:35:10;;;;;;;15.30;8.10;;;;;;;;;;4937941;28;20439;-52
2022/04/01 09:37:39;;;;;;;16.20;9.53;;;;;;;;;;4938902;28;20447;-53
2022/04/01 09:40:06;;;;;;;15.00;10.37;;;;;;;;;;4937912;28;20451;-51
2022/04/01 09:42:33;;;;;;;16.70;11.47;;;;;;;;;;4934558;28;20454;-51
2022/04/01 09:45:06;;;;;;;15.63;9.53;;;;;;;;;;4964807;28;20625;-51
2022/04/01 09:47:36;;;;;;;16.90;9.90;;;;;;;;;;4933999;28;20545;-51
2022/04/01 09:50:04;;;;;;;13.90;8.80;;;;;;;;;;4929969;28;20458;-51
2022/04/01 09:52:36;;;;;;;13.63;9.20;;;;;;;;;;4939686;28;20427;-50
2022/04/01 09:55:02;;;;;;;15.13;10.50;;;;;;;;;;4939648;28;24265;-50
2022/04/01 10:00:34;;;;;;;15.43;9.63;;;;;;;;;;4941153;28;20465;-51
2022/04/01 10:03:02;;;;;;;13.80;8.70;;;;;;;;;;4933593;28;20469;-50
2022/04/01 10:05:28;;;;;;;12.93;8.17;;;;;;;;;;4935643;28;20486;-50
2022/04/01 10:07:54;;;;;;;14.53;8.60;;;;;;;;;;4950254;28;20752;-51
2022/04/01 10:10:25;;;;;;;15.30;10.40;;;;;;;;;;4940072;28;25042;-51
2022/04/01 10:12:51;;;;;;;12.30;8.10;;;;;;;;;;4937783;28;20610;-49
2022/04/01 10:15:17;;;;;;;15.90;10.30;;;;;;;;;;4936298;28;20522;-52
2022/04/01 10:17:43;;;;;;;14.83;9.10;;;;;;;;;;4933463;28;20450;-53
2022/04/01 10:20:09;;;;;;;17.80;8.30;;;;;;;;;;4948767;28;21794;-52
2022/04/01 10:22:36;;;;;;;15.90;9.70;;;;;;;;;;4936338;28;20454;-52
2022/04/01 10:25:05;;;;;;;12.90;7.63;;;;;;;;;;4938179;28;20478;-52
2022/04/01 10:27:40;;;;;;;16.03;9.80;;;;;;;;;;4964922;28;20888;-52
2022/04/01 10:30:24;;;;;;;17.17;9.87;;;;;;;;;;4932973;28;20517;-52
2022/04/01 10:32:55;;;;;;;11.40;8.17;;;;;;;;;;4933928;28;20914;-52
2022/04/01 10:35:28;;;;;;;12.77;8.80;;;;;;;;;;4932849;28;20645;-51
2022/04/01 10:38:15;;;;;;;9.93;6.77;;;;;;;;;;4934764;28;20486;-52
2022/04/01 10:40:41;;;;;;;8.27;6.10;;;;;;;;;;4942266;28;20482;-52
2022/04/01 10:43:12;;;;;;;8.03;5.67;;;;;;;;;;4938749;28;21363;-51
2022/04/01 10:45:39;;;;;;;9.60;5.40;;;;;;;;;;4941670;28;20499;-52
2022/04/01 10:54:01;;;;;;;10.50;5.13;;;;;;;;;;4938601;28;20485;-51
2022/04/01 10:56:28;;;;;;;5.17;3.77;;;;;;;;;;4939048;28;20898;-51
2022/04/01 10:59:13;;;;;;;5.07;3.77;;;;;;;;;;4940639;28;20941;-49
2022/04/01 11:01:40;;;;;;;4.33;3.23;;;;;;;;;;4933479;28;20435;-50
2022/04/01 11:04:21;;;;;;;2.93;2.60;;;;;;;;;;4938430;28;20467;-51
2022/04/01 11:07:21;;;;;;;4.23;3.50;;;;;;;;;;4936743;28;20524;-52
2022/04/01 11:09:49;;;;;;;5.03;3.20;;;;;;;;;;4930105;28;20447;-50
2022/04/01 11:12:22;;;;;;;5.77;5.27;;;;;;;;;;4934679;28;20443;-50
2022/04/01 11:15:16;;;;;;;7.37;4.60;;;;;;;;;;4939156;28;20463;-51
2022/04/01 11:17:49;;;;;;;4.87;3.93;;;;;;;;;;4941529;29;20471;-50
2022/04/01 11:20:21;;;;;;;4.53;4.07;;;;;;;;;;4942974;28;20459;-51
2022/04/01 11:23:01;;;;;;;5.37;4.33;;;;;;;;;;4937542;28;20452;-51
2022/04/01 11:25:31;;;;;;;4.00;3.57;;;;;;;;;;4931443;28;20514;-50
2022/04/01 11:27:57;;;;;;;4.93;3.80;;;;;;;;;;4925180;28;21443;-51
2022/04/01 11:30:33;;;;;;;4.37;3.43;;;;;;;;;;4927320;28;20505;-49
2022/04/01 11:33:04;;;;;;;3.70;3.40;;;;;;;;;;4925196;28;20474;-50
2022/04/01 11:35:35;;;;;;;4.50;3.43;;;;;;;;;;4930737;28;20447;-50
2022/04/01 11:38:02;;;;;;;5.33;3.60;;;;;;;;;;4936303;28;20470;-50
2022/04/01 11:40:33;;;;;;;3.53;3.20;;;;;;;;;;4951221;28;20491;-51
2022/04/01 11:43:02;;;;;;;4.13;3.73;;;;;;;;;;4941443;28;20837;-50
2022/04/01 11:45:46;;;;;;;5.10;4.10;;;;;;;;;;4931987;28;20483;-50
2022/04/01 11:48:33;;;;;;;4.47;3.87;;;;;;;;;;4937396;28;20474;-51
2022/04/01 11:51:09;;;;;;;4.57;3.60;;;;;;;;;;4936421;28;20447;-53
2022/04/01 11:53:37;;;;;;;4.47;3.90;;;;;;;;;;4939080;28;20572;-50
2022/04/01 11:56:17;;;;;;;3.60;3.27;;;;;;;;;;4940509;28;20497;-51
2022/04/01 11:58:55;;;;;;;4.33;3.90;;;;;;;;;;4937435;28;20450;-52
2022/04/01 12:01:24;;;;;;;6.07;4.63;;;;;;;;;;4936570;28;20439;-55
2022/04/01 12:03:50;;;;;;;4.83;4.30;;;;;;;;;;4938415;28;20450;-51
2022/04/01 12:09:14;;;;;;;5.40;4.10;;;;;;;;;;4938774;28;20447;-51
2022/04/01 12:11:46;;;;;;;4.20;3.47;;;;;;;;;;4937496;28;20498;-51
2022/04/01 12:14:12;;;;;;;7.47;5.73;;;;;;;;;;4938704;28;21054;-51
2022/04/01 12:16:39;;;;;;;6.07;4.97;;;;;;;;;;4935665;28;20439;-52
2022/04/01 12:19:05;;;;;;;6.83;4.60;;;;;;;;;;4943692;28;20439;-50
2022/04/01 12:21:31;;;;;;;6.37;5.10;;;;;;;;;;4942241;28;21002;-51
2022/04/01 12:23:57;;;;;;;6.57;4.70;;;;;;;;;;4939095;28;20501;-51
2022/04/01 12:26:31;;;;;;;7.30;5.13;;;;;;;;;;4935666;28;20443;-51
2022/04/01 12:29:02;;;;;;;7.57;5.50;;;;;;;;;;4938837;28;20453;-50
2022/04/01 12:31:29;;;;;;;7.43;6.13;;;;;;;;;;4934971;28;20438;-53
2022/04/01 12:33:55;;;;;;;8.43;6.17;;;;;;;;;;4938468;28;20439;-50
2022/04/01 12:36:48;;;;;;;9.53;6.17;;;;;;;;;;4939289;28;20438;-52
2022/04/01 12:39:15;;;;;;;7.00;6.00;;;;;;;;;;4933223;28;20450;-52
2022/04/01 12:41:51;;;;;;;8.30;6.27;;;;;;;;;;4932649;28;20510;-51
2022/04/01 12:44:30;;;;;;;6.53;5.83;;;;;;;;;;4935086;28;20482;-53
2022/04/01 12:47:00;;;;;;;7.53;6.83;;;;;;;;;;4934862;28;20547;-51
2022/04/01 12:49:35;;;;;;;7.20;5.50;;;;;;;;;;4935393;28;20464;-52
2022/04/01 12:54:50;;;;;;;7.93;5.33;;;;;;;;;;4936637;28;20482;-51
2022/04/01 12:57:16;;;;;;;7.37;5.80;;;;;;;;;;4939228;28;20427;-51
2022/04/01 12:59:43;;;;;;;6.60;4.73;;;;;;;;;;4939744;28;20501;-51
2022/04/01 13:02:12;;;;;;;6.97;5.60;;;;;;;;;;4933757;28;20485;-52
2022/04/01 13:04:56;;;;;;;6.50;4.70;;;;;;;;;;4941086;28;20689;-51
2022/04/01 13:07:35;;;;;;;9.53;6.13;;;;;;;;;;4936125;28;20973;-50
2022/04/01 13:10:02;;;;;;;9.83;8.00;;;;;;;;;;4934862;28;20447;-52
2022/04/01 13:15:32;;;;;;;9.07;7.17;;;;;;;;;;4936562;28;20490;-51
2022/04/01 13:17:59;;;;;;;9.07;6.77;;;;;;;;;;4937360;28;20454;-51
2022/04/01 13:20:39;;;;;;;10.07;7.53;;;;;;;;;;4938099;28;20448;-51
2022/04/01 13:23:11;;;;;;;7.60;5.83;;;;;;;;;;4941853;28;20441;-50
2022/04/01 13:25:38;;;;;;;9.40;7.17;;;;;;;;;;4940524;28;20537;-51
2022/04/01 13:28:05;;;;;;;13.10;7.80;;;;;;;;;;4944324;28;20434;-50
2022/04/01 13:30:31;;;;;;;8.03;6.40;;;;;;;;;;4942706;28;20582;-51
2022/04/01 13:32:58;;;;;;;8.17;7.27;;;;;;;;;;4926173;28;20481;-51
2022/04/01 13:35:25;;;;;;;9.70;6.80;;;;;;;;;;4936478;28;20467;-51
2022/04/01 13:38:03;;;;;;;9.93;7.93;;;;;;;;;;4938364;28;20454;-51
2022/04/01 13:40:30;;;;;;;9.33;7.13;;;;;;;;;;4931059;28;21199;-52
2022/04/01 13:43:20;;;;;;;7.73;5.77;;;;;;;;;;4929791;28;20506;-52
2022/04/01 13:45:50;;;;;;;14.20;9.00;;;;;;;;;;4937746;28;21200;-52
2022/04/01 13:48:16;;;;;;;9.87;7.93;;;;;;;;;;4938855;28;20435;-52
2022/04/01 13:50:43;;;;;;;14.63;7.83;;;;;;;;;;4942816;28;20442;-52
2022/04/01 13:53:11;;;;;;;11.03;7.90;;;;;;;;;;4941684;28;20466;-52
2022/04/01 13:55:50;;;;;;;12.27;7.70;;;;;;;;;;4936021;28;20795;-53
2022/04/01 13:58:19;;;;;;;9.10;7.33;;;;;;;;;;4936783;28;20446;-52
2022/04/01 14:00:48;;;;;;;10.53;6.47;;;;;;;;;;4944126;28;20458;-52
2022/04/01 14:03:22;;;;;;;9.70;6.60;;;;;;;;;;4943892;28;20434;-51
2022/04/01 14:05:58;;;;;;;9.70;6.50;;;;;;;;;;4940126;28;20555;-52
2022/04/01 14:08:26;;;;;;;8.37;6.00;;;;;;;;;;4935285;28;21032;-51
2022/04/01 14:10:54;;;;;;;10.20;6.90;;;;;;;;;;4931562;28;21970;-50
2022/04/01 14:13:20;;;;;;;10.50;8.90;;;;;;;;;;4930501;28;20439;-52
2022/04/01 14:15:47;;;;;;;11.70;7.63;;;;;;;;;;4938229;28;20458;-50
2022/04/01 14:18:13;;;;;;;10.70;7.70;;;;;;;;;;4948448;28;20560;-50
2022/04/01 14:20:40;;;;;;;11.23;9.03;;;;;;;;;;4947641;28;20562;-50
2022/04/01 14:23:07;;;;;;;10.03;6.67;;;;;;;;;;4948804;28;20435;-50
2022/04/01 14:25:33;;;;;;;10.63;7.47;;;;;;;;;;4978671;28;21074;-49
2022/04/01 14:28:03;;;;;;;10.77;8.27;;;;;;;;;;4953100;28;20489;-48
2022/04/01 14:30:29;;;;;;;12.27;8.93;;;;;;;;;;4946198;28;20504;-51
2022/04/01 14:32:55;;;;;;;10.43;7.77;;;;;;;;;;4947020;28;20482;-52
2022/04/01 14:35:21;;;;;;;13.70;8.50;;;;;;;;;;4950191;28;20439;-50
2022/04/01 14:37:48;;;;;;;8.93;7.50;;;;;;;;;;4964245;28;21063;-52
2022/04/01 14:40:14;;;;;;;13.97;9.20;;;;;;;;;;4948824;28;20452;-50
2022/04/01 14:42:40;;;;;;;10.80;8.80;;;;;;;;;;4948990;28;20464;-51
2022/04/01 14:45:06;;;;;;;11.27;7.60;;;;;;;;;;4946615;28;20529;-50
2022/04/01 14:47:32;;;;;;;12.77;8.93;;;;;;;;;;4949702;28;20454;-50
2022/04/01 14:49:59;;;;;;;12.43;7.73;;;;;;;;;;4950986;28;20473;-50
2022/04/01 14:52:25;;;;;;;7.37;6.00;;;;;;;;;;4946934;28;20436;-50
2022/04/01 14:54:51;;;;;;;12.50;8.40;;;;;;;;;;4948121;28;20831;-51
2022/04/01 14:57:18;;;;;;;11.53;8.70;;;;;;;;;;4943586;28;20495;-51
2022/04/01 14:59:44;;;;;;;11.60;8.87;;;;;;;;;;4948995;28;20545;-51
2022/04/01 15:02:10;;;;;;;10.43;8.30;;;;;;;;;;4948689;28;20439;-51
2022/04/01 15:04:37;;;;;;;12.43;8.00;;;;;;;;;;4947896;28;21050;-50